sensor_id;sensor_type;location;lat;lon;timestamp;pressure;altitude;pressure_sealevel;temperature;humidity
34454;BME280;60061;52.080;5.312;2022-07-22T00:01:35;102120.0;;;17.13;92.84
34454;BME280;60061;52.080;5.312;2022-07-22T00:03:21;102120.0;;;17.18;92.4
34454;BME280;60061;52.080;5.312;2022-07-22T00:05:08;102125.0;;;17.12;93.02
34454;BME280;60061;52.080;5.312;2022-07-22T00:06:56;102122.0;;;17.13;93.76
34454;BME280;60061;52.080;5.312;2022-07-22T00:08:42;102123.0;;;17.25;92.82
34454;BME280;60061;52.080;5.312;2022-07-22T00:12:15;102125.0;;;17.21;92.27
34454;BME280;60061;52.080;5.312;2022-07-22T00:14:01;102124.0;;;17.21;92.36
34454;BME280;60061;52.080;5.312;2022-07-22T00:15:48;102121.0;;;17.18;92.65
34454;BME280;60061;52.080;5.312;2022-07-22T00:17:36;102115.0;;;17.16;92.28
34454;BME280;60061;52.080;5.312;2022-07-22T00:19:24;102119.0;;;17.16;92.88
34454;BME280;60061;52.080;5.312;2022-07-22T00:21:13;102113.0;;;17.12;93.0
34454;BME280;60061;52.080;5.312;2022-07-22T00:24:46;102118.0;;;17.05;92.97
34454;BME280;60061;52.080;5.312;2022-07-22T00:26:32;102117.0;;;17.18;92.65
34454;BME280;60061;52.080;5.312;2022-07-22T00:28:19;102115.0;;;17.23;91.53
34454;BME280;60061;52.080;5.312;2022-07-22T00:30:08;102115.0;;;17.18;92.55
34454;BME280;60061;52.080;5.312;2022-07-22T00:31:54;102110.0;;;17.2;92.52
34454;BME280;60061;52.080;5.312;2022-07-22T00:33:42;102115.0;;;17.29;91.94
34454;BME280;60061;52.080;5.312;2022-07-22T00:37:15;102113.0;;;17.28;92.12
34454;BME280;60061;52.080;5.312;2022-07-22T00:39:02;102113.0;;;17.27;92.43
34454;BME280;60061;52.080;5.312;2022-07-22T00:40:49;102113.0;;;17.34;91.71
34454;BME280;60061;52.080;5.312;2022-07-22T00:42:37;102112.0;;;17.34;92.75
34454;BME280;60061;52.080;5.312;2022-07-22T00:44:23;102115.0;;;17.34;92.85
34454;BME280;60061;52.080;5.312;2022-07-22T00:47:55;102111.0;;;17.36;92.19
34454;BME280;60061;52.080;5.312;2022-07-22T00:49:41;102108.0;;;17.36;92.77
34454;BME280;60061;52.080;5.312;2022-07-22T00:51:28;102113.0;;;17.36;92.61
34454;BME280;60061;52.080;5.312;2022-07-22T00:53:16;102108.0;;;17.36;92.8
34454;BME280;60061;52.080;5.312;2022-07-22T00:55:06;102109.0;;;17.38;92.55
34454;BME280;60061;52.080;5.312;2022-07-22T00:56:52;102108.0;;;17.54;91.63
34454;BME280;60061;52.080;5.312;2022-07-22T01:00:27;102108.0;;;17.59;91.33
34454;BME280;60061;52.080;5.312;2022-07-22T01:02:13;102105.0;;;17.55;91.76
34454;BME280;60061;52.080;5.312;2022-07-22T01:04:00;102106.0;;;17.61;90.96
34454;BME280;60061;52.080;5.312;2022-07-22T01:05:47;102105.0;;;17.54;91.13
34454;BME280;60061;52.080;5.312;2022-07-22T01:07:33;102108.0;;;17.56;91.41
34454;BME280;60061;52.080;5.312;2022-07-22T01:09:20;102108.0;;;17.54;91.7
34454;BME280;60061;52.080;5.312;2022-07-22T01:12:54;102107.0;;;17.57;92.03
34454;BME280;60061;52.080;5.312;2022-07-22T01:14:42;102105.0;;;17.59;91.87
34454;BME280;60061;52.080;5.312;2022-07-22T01:16:29;102103.0;;;17.59;91.52
34454;BME280;60061;52.080;5.312;2022-07-22T01:18:15;102100.0;;;17.57;91.83
34454;BME280;60061;52.080;5.312;2022-07-22T01:20:04;102099.0;;;17.54;93.1
34454;BME280;60061;52.080;5.312;2022-07-22T01:21:50;102105.0;;;17.45;93.75
34454;BME280;60061;52.080;5.312;2022-07-22T01:25:25;102105.0;;;17.41;94.26
34454;BME280;60061;52.080;5.312;2022-07-22T01:27:12;102100.0;;;17.37;94.31
34454;BME280;60061;52.080;5.312;2022-07-22T01:28:58;102100.0;;;17.38;93.87
34454;BME280;60061;52.080;5.312;2022-07-22T01:30:44;102098.0;;;17.37;93.08
34454;BME280;60061;52.080;5.312;2022-07-22T01:32:30;102098.0;;;17.37;94.56
34454;BME280;60061;52.080;5.312;2022-07-22T01:36:04;102095.0;;;17.36;94.06
34454;BME280;60061;52.080;5.312;2022-07-22T01:37:51;102097.0;;;17.34;93.53
34454;BME280;60061;52.080;5.312;2022-07-22T01:39:37;102098.0;;;17.36;93.04
34454;BME280;60061;52.080;5.312;2022-07-22T01:41:23;102098.0;;;17.37;93.9
34454;BME280;60061;52.080;5.312;2022-07-22T01:43:10;102096.0;;;17.37;93.77
34454;BME280;60061;52.080;5.312;2022-07-22T01:44:56;102099.0;;;17.36;94.29
34454;BME280;60061;52.080;5.312;2022-07-22T01:48:29;102100.0;;;17.36;94.55
34454;BME280;60061;52.080;5.312;2022-07-22T01:50:16;102103.0;;;17.32;94.72
34454;BME280;60061;52.080;5.312;2022-07-22T01:52:04;102100.0;;;17.29;95.28
34454;BME280;60061;52.080;5.312;2022-07-22T01:53:51;102099.0;;;17.27;94.86
34454;BME280;60061;52.080;5.312;2022-07-22T01:55:38;102099.0;;;17.27;94.33
34454;BME280;60061;52.080;5.312;2022-07-22T01:57:24;102092.0;;;17.29;95.15
34454;BME280;60061;52.080;5.312;2022-07-22T02:00:58;102094.0;;;17.32;93.78
34454;BME280;60061;52.080;5.312;2022-07-22T02:02:45;102088.0;;;17.36;93.98
34454;BME280;60061;52.080;5.312;2022-07-22T02:04:32;102089.0;;;17.37;94.41
34454;BME280;60061;52.080;5.312;2022-07-22T02:06:18;102087.0;;;17.37;94.18
34454;BME280;60061;52.080;5.312;2022-07-22T02:08:07;102085.0;;;17.36;94.88
34454;BME280;60061;52.080;5.312;2022-07-22T02:09:55;102090.0;;;17.36;94.48
34454;BME280;60061;52.080;5.312;2022-07-22T02:13:29;102089.0;;;17.32;94.69
34454;BME280;60061;52.080;5.312;2022-07-22T02:15:15;102087.0;;;17.29;94.37
34454;BME280;60061;52.080;5.312;2022-07-22T02:17:01;102085.0;;;17.31;94.18
34454;BME280;60061;52.080;5.312;2022-07-22T02:18:48;102082.0;;;17.32;94.6
34454;BME280;60061;52.080;5.312;2022-07-22T02:20:35;102081.0;;;17.32;94.32
34454;BME280;60061;52.080;5.312;2022-07-22T02:24:09;102080.0;;;17.34;94.88
34454;BME280;60061;52.080;5.312;2022-07-22T02:25:55;102075.0;;;17.32;94.77
34454;BME280;60061;52.080;5.312;2022-07-22T02:27:42;102072.0;;;17.34;93.96
34454;BME280;60061;52.080;5.312;2022-07-22T02:29:28;102072.0;;;17.37;93.92
34454;BME280;60061;52.080;5.312;2022-07-22T02:31:14;102073.0;;;17.37;94.58
34454;BME280;60061;52.080;5.312;2022-07-22T02:33:01;102071.0;;;17.36;94.15
34454;BME280;60061;52.080;5.312;2022-07-22T02:36:34;102076.0;;;17.36;93.81
34454;BME280;60061;52.080;5.312;2022-07-22T02:38:20;102071.0;;;17.38;94.43
34454;BME280;60061;52.080;5.312;2022-07-22T02:40:08;102073.0;;;17.36;94.74
34454;BME280;60061;52.080;5.312;2022-07-22T02:41:56;102068.0;;;17.36;94.76
34454;BME280;60061;52.080;5.312;2022-07-22T02:43:41;102068.0;;;17.34;95.04
34454;BME280;60061;52.080;5.312;2022-07-22T02:45:28;102066.0;;;17.3;95.43
34454;BME280;60061;52.080;5.312;2022-07-22T02:49:02;102075.0;;;17.23;96.26
34454;BME280;60061;52.080;5.312;2022-07-22T02:50:49;102074.0;;;17.25;95.2
34454;BME280;60061;52.080;5.312;2022-07-22T02:52:36;102075.0;;;17.29;94.86
34454;BME280;60061;52.080;5.312;2022-07-22T02:54:22;102080.0;;;17.29;95.1
34454;BME280;60061;52.080;5.312;2022-07-22T02:56:10;102083.0;;;17.34;94.38
34454;BME280;60061;52.080;5.312;2022-07-22T02:59:42;102082.0;;;17.37;93.89
34454;BME280;60061;52.080;5.312;2022-07-22T03:01:29;102076.0;;;17.36;94.98
34454;BME280;60061;52.080;5.312;2022-07-22T03:03:15;102076.0;;;17.34;94.76
34454;BME280;60061;52.080;5.312;2022-07-22T03:05:02;102082.0;;;17.31;94.8
34454;BME280;60061;52.080;5.312;2022-07-22T03:06:49;102075.0;;;17.37;94.01
34454;BME280;60061;52.080;5.312;2022-07-22T03:08:36;102078.0;;;17.39;93.74
34454;BME280;60061;52.080;5.312;2022-07-22T03:12:09;102078.0;;;17.43;94.51
34454;BME280;60061;52.080;5.312;2022-07-22T03:13:56;102081.0;;;17.43;93.92
34454;BME280;60061;52.080;5.312;2022-07-22T03:15:43;102077.0;;;17.45;93.49
34454;BME280;60061;52.080;5.312;2022-07-22T03:17:33;102078.0;;;17.45;93.94
34454;BME280;60061;52.080;5.312;2022-07-22T03:19:20;102077.0;;;17.46;93.39
34454;BME280;60061;52.080;5.312;2022-07-22T03:21:06;102077.0;;;17.48;93.99
34454;BME280;60061;52.080;5.312;2022-07-22T03:24:39;102074.0;;;17.48;93.67
34454;BME280;60061;52.080;5.312;2022-07-22T03:26:26;102071.0;;;17.5;94.19
34454;BME280;60061;52.080;5.312;2022-07-22T03:28:12;102071.0;;;17.47;94.26
34454;BME280;60061;52.080;5.312;2022-07-22T03:29:58;102076.0;;;17.43;94.9
34454;BME280;60061;52.080;5.312;2022-07-22T03:31:44;102074.0;;;17.41;94.25
34454;BME280;60061;52.080;5.312;2022-07-22T03:35:17;102076.0;;;17.38;94.34
34454;BME280;60061;52.080;5.312;2022-07-22T03:37:03;102076.0;;;17.38;94.73
34454;BME280;60061;52.080;5.312;2022-07-22T03:38:49;102080.0;;;17.32;94.93
34454;BME280;60061;52.080;5.312;2022-07-22T03:40:35;102081.0;;;17.29;95.35
34454;BME280;60061;52.080;5.312;2022-07-22T03:42:21;102080.0;;;17.28;95.13
34454;BME280;60061;52.080;5.312;2022-07-22T03:44:07;102078.0;;;17.22;95.47
34454;BME280;60061;52.080;5.312;2022-07-22T03:47:40;102076.0;;;17.27;95.03
34454;BME280;60061;52.080;5.312;2022-07-22T03:49:30;102080.0;;;17.3;94.7
34454;BME280;60061;52.080;5.312;2022-07-22T03:51:17;102081.0;;;17.28;94.91
34454;BME280;60061;52.080;5.312;2022-07-22T03:53:03;102080.0;;;17.27;94.72
34454;BME280;60061;52.080;5.312;2022-07-22T03:54:49;102082.0;;;17.29;94.66
34454;BME280;60061;52.080;5.312;2022-07-22T03:56:36;102082.0;;;17.32;94.55
34454;BME280;60061;52.080;5.312;2022-07-22T04:00:09;102080.0;;;17.36;94.84
34454;BME280;60061;52.080;5.312;2022-07-22T04:01:56;102080.0;;;17.39;93.98
34454;BME280;60061;52.080;5.312;2022-07-22T04:03:42;102078.0;;;17.41;93.26
34454;BME280;60061;52.080;5.312;2022-07-22T04:05:28;102075.0;;;17.43;93.94
34454;BME280;60061;52.080;5.312;2022-07-22T04:07:15;102080.0;;;17.39;94.59
34454;BME280;60061;52.080;5.312;2022-07-22T04:12:36;102075.0;;;17.43;94.18
34454;BME280;60061;52.080;5.312;2022-07-22T04:14:24;102074.0;;;17.47;93.79
34454;BME280;60061;52.080;5.312;2022-07-22T04:16:10;102067.0;;;17.48;93.89
34454;BME280;60061;52.080;5.312;2022-07-22T04:17:56;102069.0;;;17.43;94.76
34454;BME280;60061;52.080;5.312;2022-07-22T04:19:43;102073.0;;;17.43;93.51
34454;BME280;60061;52.080;5.312;2022-07-22T04:23:17;102073.0;;;17.43;94.65
34454;BME280;60061;52.080;5.312;2022-07-22T04:25:05;102073.0;;;17.41;94.54
34454;BME280;60061;52.080;5.312;2022-07-22T04:26:51;102071.0;;;17.38;94.11
34454;BME280;60061;52.080;5.312;2022-07-22T04:28:37;102070.0;;;17.39;94.01
34454;BME280;60061;52.080;5.312;2022-07-22T04:30:23;102069.0;;;17.45;93.32
34454;BME280;60061;52.080;5.312;2022-07-22T04:32:10;102072.0;;;17.46;93.45
34454;BME280;60061;52.080;5.312;2022-07-22T04:35:44;102066.0;;;17.52;93.79
34454;BME280;60061;52.080;5.312;2022-07-22T04:37:30;102066.0;;;17.52;94.02
34454;BME280;60061;52.080;5.312;2022-07-22T04:39:18;102063.0;;;17.43;95.36
34454;BME280;60061;52.080;5.312;2022-07-22T04:41:05;102057.0;;;17.31;95.97
34454;BME280;60061;52.080;5.312;2022-07-22T04:42:51;102063.0;;;17.27;96.34
34454;BME280;60061;52.080;5.312;2022-07-22T04:46:24;102060.0;;;17.22;96.19
34454;BME280;60061;52.080;5.312;2022-07-22T04:48:11;102064.0;;;17.27;96.13
34454;BME280;60061;52.080;5.312;2022-07-22T04:49:57;102065.0;;;17.34;94.9
34454;BME280;60061;52.080;5.312;2022-07-22T04:51:43;102058.0;;;17.41;94.42
34454;BME280;60061;52.080;5.312;2022-07-22T04:53:30;102061.0;;;17.48;92.84
34454;BME280;60061;52.080;5.312;2022-07-22T04:55:17;102053.0;;;17.61;92.45
34454;BME280;60061;52.080;5.312;2022-07-22T04:58:51;102052.0;;;17.71;91.4
34454;BME280;60061;52.080;5.312;2022-07-22T05:00:38;102055.0;;;17.8;90.78
34454;BME280;60061;52.080;5.312;2022-07-22T05:02:24;102055.0;;;17.8;89.43
34454;BME280;60061;52.080;5.312;2022-07-22T05:04:11;102055.0;;;17.97;88.44
34454;BME280;60061;52.080;5.312;2022-07-22T05:05:59;102053.0;;;17.88;89.63
34454;BME280;60061;52.080;5.312;2022-07-22T05:07:45;102052.0;;;17.78;91.82
34454;BME280;60061;52.080;5.312;2022-07-22T05:11:18;102051.0;;;17.71;92.52
34454;BME280;60061;52.080;5.312;2022-07-22T05:13:04;102048.0;;;17.75;91.99
34454;BME280;60061;52.080;5.312;2022-07-22T05:14:51;102056.0;;;17.75;91.43
34454;BME280;60061;52.080;5.312;2022-07-22T05:16:38;102059.0;;;17.93;90.71
34454;BME280;60061;52.080;5.312;2022-07-22T05:18:25;102065.0;;;17.91;89.79
34454;BME280;60061;52.080;5.312;2022-07-22T05:23:44;102068.0;;;18.12;88.62
34454;BME280;60061;52.080;5.312;2022-07-22T05:25:31;102072.0;;;18.11;89.33
34454;BME280;60061;52.080;5.312;2022-07-22T05:27:18;102070.0;;;18.06;89.17
34454;BME280;60061;52.080;5.312;2022-07-22T05:29:05;102070.0;;;18.13;88.71
34454;BME280;60061;52.080;5.312;2022-07-22T05:30:52;102069.0;;;18.14;89.12
34454;BME280;60061;52.080;5.312;2022-07-22T05:34:25;102073.0;;;18.02;89.3
34454;BME280;60061;52.080;5.312;2022-07-22T05:36:11;102076.0;;;18.14;89.1
34454;BME280;60061;52.080;5.312;2022-07-22T05:37:58;102073.0;;;18.27;88.78
34454;BME280;60061;52.080;5.312;2022-07-22T05:39:45;102071.0;;;18.38;87.76
34454;BME280;60061;52.080;5.312;2022-07-22T05:41:32;102073.0;;;18.34;87.34
34454;BME280;60061;52.080;5.312;2022-07-22T05:43:18;102067.0;;;18.31;87.91
34454;BME280;60061;52.080;5.312;2022-07-22T05:46:53;102072.0;;;18.25;88.28
34454;BME280;60061;52.080;5.312;2022-07-22T05:48:40;102076.0;;;18.25;88.08
34454;BME280;60061;52.080;5.312;2022-07-22T05:50:27;102077.0;;;18.23;88.03
34454;BME280;60061;52.080;5.312;2022-07-22T05:52:14;102078.0;;;18.27;88.35
34454;BME280;60061;52.080;5.312;2022-07-22T05:54:02;102075.0;;;18.28;87.87
34454;BME280;60061;52.080;5.312;2022-07-22T05:57:36;102082.0;;;18.31;87.2
34454;BME280;60061;52.080;5.312;2022-07-22T05:59:22;102083.0;;;18.27;86.22
34454;BME280;60061;52.080;5.312;2022-07-22T06:01:08;102078.0;;;18.27;86.29
34454;BME280;60061;52.080;5.312;2022-07-22T06:02:56;102085.0;;;18.32;85.76
34454;BME280;60061;52.080;5.312;2022-07-22T06:04:42;102082.0;;;18.29;85.17
34454;BME280;60061;52.080;5.312;2022-07-22T06:06:28;102083.0;;;18.48;86.91
34454;BME280;60061;52.080;5.312;2022-07-22T06:10:01;102077.0;;;18.54;87.07
34454;BME280;60061;52.080;5.312;2022-07-22T06:11:47;102077.0;;;18.43;84.61
34454;BME280;60061;52.080;5.312;2022-07-22T06:13:33;102083.0;;;18.45;84.98
34454;BME280;60061;52.080;5.312;2022-07-22T06:15:20;102083.0;;;18.5;85.96
34454;BME280;60061;52.080;5.312;2022-07-22T06:17:06;102082.0;;;18.46;84.62
34454;BME280;60061;52.080;5.312;2022-07-22T06:18:53;102084.0;;;18.61;85.42
34454;BME280;60061;52.080;5.312;2022-07-22T06:22:26;102083.0;;;18.64;85.4
34454;BME280;60061;52.080;5.312;2022-07-22T06:24:12;102083.0;;;18.68;83.64
34454;BME280;60061;52.080;5.312;2022-07-22T06:25:58;102084.0;;;18.7;83.29
34454;BME280;60061;52.080;5.312;2022-07-22T06:27:44;102083.0;;;18.75;84.94
34454;BME280;60061;52.080;5.312;2022-07-22T06:29:31;102080.0;;;18.79;83.33
34454;BME280;60061;52.080;5.312;2022-07-22T06:33:04;102076.0;;;18.79;81.55
34454;BME280;60061;52.080;5.312;2022-07-22T06:34:50;102074.0;;;18.77;81.25
34454;BME280;60061;52.080;5.312;2022-07-22T06:36:36;102074.0;;;18.84;82.37
34454;BME280;60061;52.080;5.312;2022-07-22T06:38:23;102075.0;;;19.0;81.41
34454;BME280;60061;52.080;5.312;2022-07-22T06:40:11;102075.0;;;19.04;81.14
34454;BME280;60061;52.080;5.312;2022-07-22T06:41:58;102068.0;;;19.11;80.2
34454;BME280;60061;52.080;5.312;2022-07-22T06:45:30;102069.0;;;19.14;79.59
34454;BME280;60061;52.080;5.312;2022-07-22T06:47:17;102072.0;;;19.12;80.69
34454;BME280;60061;52.080;5.312;2022-07-22T06:49:03;102070.0;;;19.14;79.97
34454;BME280;60061;52.080;5.312;2022-07-22T06:50:50;102067.0;;;19.25;79.44
34454;BME280;60061;52.080;5.312;2022-07-22T06:52:38;102067.0;;;19.22;80.74
34454;BME280;60061;52.080;5.312;2022-07-22T06:54:26;102070.0;;;19.37;79.27
34454;BME280;60061;52.080;5.312;2022-07-22T06:57:58;102071.0;;;19.36;79.38
34454;BME280;60061;52.080;5.312;2022-07-22T06:59:44;102071.0;;;19.52;75.91
34454;BME280;60061;52.080;5.312;2022-07-22T07:01:31;102078.0;;;19.47;77.55
34454;BME280;60061;52.080;5.312;2022-07-22T07:03:17;102072.0;;;19.39;77.83
34454;BME280;60061;52.080;5.312;2022-07-22T07:05:05;102075.0;;;19.5;77.41
34454;BME280;60061;52.080;5.312;2022-07-22T07:08:39;102075.0;;;19.41;75.81
34454;BME280;60061;52.080;5.312;2022-07-22T07:10:26;102066.0;;;19.18;73.55
34454;BME280;60061;52.080;5.312;2022-07-22T07:12:12;102071.0;;;19.18;74.47
34454;BME280;60061;52.080;5.312;2022-07-22T07:13:58;102072.0;;;19.32;73.27
34454;BME280;60061;52.080;5.312;2022-07-22T07:15:46;102070.0;;;19.27;74.11
34454;BME280;60061;52.080;5.312;2022-07-22T07:17:32;102078.0;;;19.32;74.02
34454;BME280;60061;52.080;5.312;2022-07-22T07:21:06;102077.0;;;19.45;73.61
34454;BME280;60061;52.080;5.312;2022-07-22T07:22:53;102075.0;;;19.55;73.67
34454;BME280;60061;52.080;5.312;2022-07-22T07:24:39;102074.0;;;19.77;71.56
34454;BME280;60061;52.080;5.312;2022-07-22T07:26:27;102070.0;;;19.66;69.61
34454;BME280;60061;52.080;5.312;2022-07-22T07:28:13;102069.0;;;19.57;71.3
34454;BME280;60061;52.080;5.312;2022-07-22T07:29:59;102073.0;;;19.7;71.52
34454;BME280;60061;52.080;5.312;2022-07-22T07:33:33;102066.0;;;19.87;71.05
34454;BME280;60061;52.080;5.312;2022-07-22T07:35:20;102070.0;;;19.93;71.61
34454;BME280;60061;52.080;5.312;2022-07-22T07:37:07;102073.0;;;19.84;69.94
34454;BME280;60061;52.080;5.312;2022-07-22T07:38:53;102071.0;;;19.86;68.83
34454;BME280;60061;52.080;5.312;2022-07-22T07:40:39;102072.0;;;19.86;69.86
34454;BME280;60061;52.080;5.312;2022-07-22T07:44:13;102077.0;;;19.84;69.2
34454;BME280;60061;52.080;5.312;2022-07-22T07:46:00;102073.0;;;20.0;68.19
34454;BME280;60061;52.080;5.312;2022-07-22T07:47:48;102073.0;;;20.09;69.69
34454;BME280;60061;52.080;5.312;2022-07-22T07:49:35;102071.0;;;20.18;69.22
34454;BME280;60061;52.080;5.312;2022-07-22T07:51:22;102072.0;;;20.27;67.08
34454;BME280;60061;52.080;5.312;2022-07-22T07:53:08;102070.0;;;20.27;68.91
34454;BME280;60061;52.080;5.312;2022-07-22T07:56:43;102067.0;;;20.28;68.86
34454;BME280;60061;52.080;5.312;2022-07-22T07:58:29;102074.0;;;20.3;68.36
34454;BME280;60061;52.080;5.312;2022-07-22T08:00:16;102076.0;;;20.06;68.47
34454;BME280;60061;52.080;5.312;2022-07-22T08:02:06;102075.0;;;20.13;68.11
34454;BME280;60061;52.080;5.312;2022-07-22T08:03:53;102076.0;;;20.02;65.99
34454;BME280;60061;52.080;5.312;2022-07-22T08:05:39;102072.0;;;20.04;68.83
34454;BME280;60061;52.080;5.312;2022-07-22T08:09:14;102068.0;;;20.23;70.14
34454;BME280;60061;52.080;5.312;2022-07-22T08:11:00;102068.0;;;20.36;66.0
34454;BME280;60061;52.080;5.312;2022-07-22T08:12:46;102071.0;;;20.38;67.52
34454;BME280;60061;52.080;5.312;2022-07-22T08:14:33;102068.0;;;20.53;67.66
34454;BME280;60061;52.080;5.312;2022-07-22T08:16:20;102069.0;;;20.55;67.72
34454;BME280;60061;52.080;5.312;2022-07-22T08:18:07;102067.0;;;20.58;67.84
34454;BME280;60061;52.080;5.312;2022-07-22T08:21:42;102072.0;;;20.57;68.11
34454;BME280;60061;52.080;5.312;2022-07-22T08:23:29;102068.0;;;20.68;67.27
34454;BME280;60061;52.080;5.312;2022-07-22T08:25:16;102070.0;;;20.52;66.36
34454;BME280;60061;52.080;5.312;2022-07-22T08:27:03;102068.0;;;20.56;65.09
34454;BME280;60061;52.080;5.312;2022-07-22T08:28:50;102067.0;;;20.71;66.85
34454;BME280;60061;52.080;5.312;2022-07-22T08:32:23;102062.0;;;20.65;66.55
34454;BME280;60061;52.080;5.312;2022-07-22T08:34:09;102060.0;;;20.52;67.19
34454;BME280;60061;52.080;5.312;2022-07-22T08:35:57;102059.0;;;20.48;65.91
34454;BME280;60061;52.080;5.312;2022-07-22T08:37:45;102061.0;;;20.49;66.92
34454;BME280;60061;52.080;5.312;2022-07-22T08:39:34;102055.0;;;20.31;65.47
34454;BME280;60061;52.080;5.312;2022-07-22T08:41:21;102055.0;;;20.47;67.17
34454;BME280;60061;52.080;5.312;2022-07-22T08:44:57;102055.0;;;20.46;68.11
34454;BME280;60061;52.080;5.312;2022-07-22T08:46:44;102060.0;;;20.64;67.24
34454;BME280;60061;52.080;5.312;2022-07-22T08:48:31;102060.0;;;20.85;65.58
34454;BME280;60061;52.080;5.312;2022-07-22T08:50:18;102056.0;;;20.94;65.22
34454;BME280;60061;52.080;5.312;2022-07-22T08:53:52;102048.0;;;20.92;64.55
34454;BME280;60061;52.080;5.312;2022-07-22T08:57:28;102049.0;;;20.83;65.33
34454;BME280;60061;52.080;5.312;2022-07-22T08:59:14;102050.0;;;20.75;66.19
34454;BME280;60061;52.080;5.312;2022-07-22T09:01:06;102043.0;;;20.86;66.47
34454;BME280;60061;52.080;5.312;2022-07-22T09:02:53;102046.0;;;20.86;67.19
34454;BME280;60061;52.080;5.312;2022-07-22T09:04:57;102041.0;;;20.86;65.97
34454;BME280;60061;52.080;5.312;2022-07-22T09:06:48;102045.0;;;20.84;65.99
34454;BME280;60061;52.080;5.312;2022-07-22T09:08:50;102047.0;;;20.59;64.81
34454;BME280;60061;52.080;5.312;2022-07-22T09:10:36;102041.0;;;20.2;66.45
34454;BME280;60061;52.080;5.312;2022-07-22T09:14:12;102045.0;;;20.06;67.05
34454;BME280;60061;52.080;5.312;2022-07-22T09:15:58;102044.0;;;19.88;66.09
34454;BME280;60061;52.080;5.312;2022-07-22T09:17:45;102044.0;;;19.91;66.74
34454;BME280;60061;52.080;5.312;2022-07-22T09:19:34;102046.0;;;20.02;67.61
34454;BME280;60061;52.080;5.312;2022-07-22T09:21:20;102045.0;;;19.95;67.31
34454;BME280;60061;52.080;5.312;2022-07-22T09:23:10;102044.0;;;19.95;67.69
34454;BME280;60061;52.080;5.312;2022-07-22T09:26:44;102050.0;;;20.09;65.5
34454;BME280;60061;52.080;5.312;2022-07-22T09:28:30;102049.0;;;20.04;65.08
34454;BME280;60061;52.080;5.312;2022-07-22T09:30:18;102051.0;;;20.16;66.33
34454;BME280;60061;52.080;5.312;2022-07-22T09:32:06;102055.0;;;20.12;68.55
34454;BME280;60061;52.080;5.312;2022-07-22T09:33:54;102056.0;;;20.25;67.75
34454;BME280;60061;52.080;5.312;2022-07-22T09:35:41;102057.0;;;20.16;66.16
34454;BME280;60061;52.080;5.312;2022-07-22T09:39:24;102058.0;;;20.11;63.7
34454;BME280;60061;52.080;5.312;2022-07-22T09:41:14;102052.0;;;20.14;62.92
34454;BME280;60061;52.080;5.312;2022-07-22T09:43:03;102048.0;;;20.34;64.11
34454;BME280;60061;52.080;5.312;2022-07-22T09:44:50;102045.0;;;20.45;64.08
34454;BME280;60061;52.080;5.312;2022-07-22T09:46:37;102049.0;;;20.3;62.55
34454;BME280;60061;52.080;5.312;2022-07-22T09:48:25;102049.0;;;20.48;65.06
34454;BME280;60061;52.080;5.312;2022-07-22T09:50:16;102048.0;;;20.57;65.56
34454;BME280;60061;52.080;5.312;2022-07-22T09:53:53;102040.0;;;20.58;62.45
34454;BME280;60061;52.080;5.312;2022-07-22T09:55:41;102044.0;;;20.53;62.2
34454;BME280;60061;52.080;5.312;2022-07-22T09:57:27;102051.0;;;20.64;63.57
34454;BME280;60061;52.080;5.312;2022-07-22T09:59:14;102046.0;;;20.68;65.47
34454;BME280;60061;52.080;5.312;2022-07-22T10:01:04;102050.0;;;20.74;63.72
34454;BME280;60061;52.080;5.312;2022-07-22T10:02:53;102051.0;;;20.67;65.06
34454;BME280;60061;52.080;5.312;2022-07-22T10:06:34;102049.0;;;20.66;64.69
34454;BME280;60061;52.080;5.312;2022-07-22T10:08:24;102053.0;;;20.72;63.89
34454;BME280;60061;52.080;5.312;2022-07-22T10:10:13;102052.0;;;20.7;64.17
34454;BME280;60061;52.080;5.312;2022-07-22T10:12:02;102052.0;;;20.8;64.08
34454;BME280;60061;52.080;5.312;2022-07-22T10:13:48;102049.0;;;20.87;62.68
34454;BME280;60061;52.080;5.312;2022-07-22T10:15:37;102055.0;;;20.88;62.65
34454;BME280;60061;52.080;5.312;2022-07-22T10:17:24;102053.0;;;20.95;61.84
34454;BME280;60061;52.080;5.312;2022-07-22T10:21:03;102055.0;;;21.21;62.17
34454;BME280;60061;52.080;5.312;2022-07-22T10:22:54;102049.0;;;21.18;61.52
34454;BME280;60061;52.080;5.312;2022-07-22T10:24:59;102049.0;;;21.17;62.3
34454;BME280;60061;52.080;5.312;2022-07-22T10:26:47;102046.0;;;21.21;61.24
34454;BME280;60061;52.080;5.312;2022-07-22T10:28:36;102048.0;;;21.42;62.24
34454;BME280;60061;52.080;5.312;2022-07-22T10:30:27;102055.0;;;21.59;60.42
34454;BME280;60061;52.080;5.312;2022-07-22T10:32:23;102052.0;;;21.68;57.88
34454;BME280;60061;52.080;5.312;2022-07-22T10:34:09;102049.0;;;21.84;60.0
34454;BME280;60061;52.080;5.312;2022-07-22T10:37:48;102044.0;;;21.94;58.89
34454;BME280;60061;52.080;5.312;2022-07-22T10:40:09;102040.0;;;21.94;57.52
34454;BME280;60061;52.080;5.312;2022-07-22T10:41:56;102038.0;;;22.07;57.11
34454;BME280;60061;52.080;5.312;2022-07-22T10:43:46;102038.0;;;22.1;58.2
34454;BME280;60061;52.080;5.312;2022-07-22T10:45:34;102038.0;;;21.95;57.91
34454;BME280;60061;52.080;5.312;2022-07-22T10:47:51;102044.0;;;22.04;58.86
34454;BME280;60061;52.080;5.312;2022-07-22T10:49:38;102050.0;;;22.08;56.12
34454;BME280;60061;52.080;5.312;2022-07-22T10:51:26;102049.0;;;22.09;56.13
34454;BME280;60061;52.080;5.312;2022-07-22T10:53:14;102050.0;;;22.26;58.87
34454;BME280;60061;52.080;5.312;2022-07-22T10:55:18;102046.0;;;22.25;57.28
34454;BME280;60061;52.080;5.312;2022-07-22T10:57:05;102043.0;;;22.15;56.79
34454;BME280;60061;52.080;5.312;2022-07-22T11:00:43;102042.0;;;22.17;59.3
34454;BME280;60061;52.080;5.312;2022-07-22T11:02:30;102041.0;;;22.14;58.61
34454;BME280;60061;52.080;5.312;2022-07-22T11:04:19;102039.0;;;22.19;58.44
34454;BME280;60061;52.080;5.312;2022-07-22T11:06:18;102040.0;;;22.27;58.05
34454;BME280;60061;52.080;5.312;2022-07-22T11:08:09;102036.0;;;22.23;59.17
34454;BME280;60061;52.080;5.312;2022-07-22T11:10:08;102036.0;;;22.31;61.16
34454;BME280;60061;52.080;5.312;2022-07-22T11:11:56;102030.0;;;22.34;58.37